Time;durP1;ratioP1;P1;durP2;ratioP2;P2;SDS_P1;SDS_P2;PMS_P1;PMS_P2;Temp;Humidity;BMP_temperature;BMP_pressure;BME280_temperature;BME280_humidity;BME280_pressure;Samples;Min_cycle;Max_cycle;Signal;HPM_P1;HPM_P2
2022/11/19 00:00:46;;;;;;;21.23;11.32;;;1.80;99.90;;;;;;5114196;27;20110;-45
2022/11/19 00:03:17;;;;;;;20.77;11.60;;;1.70;99.90;;;;;;5113551;28;20482;-47
2022/11/19 00:05:45;;;;;;;21.38;11.80;;;1.80;99.90;;;;;;5113991;27;20042;-47
2022/11/19 00:08:14;;;;;;;19.60;10.70;;;1.80;99.90;;;;;;5112079;28;20036;-45
2022/11/19 00:10:40;;;;;;;21.05;11.63;;;1.80;99.90;;;;;;5112813;28;20047;-44
2022/11/19 00:13:07;;;;;;;19.85;11.48;;;1.80;99.90;;;;;;5113438;27;20471;-44
2022/11/19 00:15:36;;;;;;;23.27;11.93;;;1.80;99.90;;;;;;5113406;27;20047;-45
2022/11/19 00:18:03;;;;;;;20.42;10.82;;;1.70;99.90;;;;;;5093376;28;20048;-45
2022/11/19 00:20:29;;;;;;;19.65;10.57;;;1.70;99.90;;;;;;5113426;27;20130;-46
2022/11/19 00:22:56;;;;;;;18.20;10.50;;;1.80;99.90;;;;;;5112385;28;20043;-47
2022/11/19 00:25:24;;;;;;;20.80;10.57;;;1.70;99.90;;;;;;5113946;27;20093;-46
2022/11/19 00:27:51;;;;;;;17.63;10.45;;;1.70;99.90;;;;;;5113363;27;20491;-46
2022/11/19 00:30:17;;;;;;;22.17;11.48;;;1.70;99.90;;;;;;5112375;27;20118;-48
2022/11/19 00:32:42;;;;;;;18.98;10.18;;;1.70;99.90;;;;;;5112744;27;20032;-46
2022/11/19 00:35:08;;;;;;;20.25;10.63;;;1.70;99.90;;;;;;5108406;27;20411;-48
2022/11/19 00:37:34;;;;;;;21.10;10.65;;;1.60;99.90;;;;;;5113190;27;20062;-47
2022/11/19 00:40:00;;;;;;;17.85;10.75;;;1.60;99.90;;;;;;5112045;28;20044;-49
2022/11/19 00:42:26;;;;;;;20.65;11.05;;;1.70;99.90;;;;;;5112957;27;20179;-49
2022/11/19 00:44:52;;;;;;;17.80;10.73;;;1.60;99.90;;;;;;5111685;28;20105;-46
2022/11/19 00:47:18;;;;;;;16.73;9.77;;;1.60;99.90;;;;;;5112149;28;20047;-47
2022/11/19 00:49:44;;;;;;;20.58;10.43;;;1.50;99.90;;;;;;5094843;28;20048;-48
2022/11/19 00:52:10;;;;;;;17.67;10.52;;;1.60;99.90;;;;;;5112477;27;20040;-46
2022/11/19 00:54:35;;;;;;;17.83;9.38;;;1.50;99.90;;;;;;5111919;27;20085;-49
2022/11/19 00:57:01;;;;;;;16.58;10.07;;;1.50;99.90;;;;;;5112971;27;20043;-46
2022/11/19 00:59:27;;;;;;;16.27;9.13;;;1.60;99.90;;;;;;5112396;27;20437;-46
2022/11/19 01:01:52;;;;;;;18.85;10.02;;;1.60;99.90;;;;;;5111363;28;20039;-47
2022/11/19 01:04:18;;;;;;;17.77;9.15;;;1.50;99.90;;;;;;5112527;27;20499;-49
2022/11/19 01:06:44;;;;;;;15.55;8.77;;;1.60;99.90;;;;;;5112756;27;20035;-46
2022/11/19 01:09:09;;;;;;;16.58;9.13;;;1.60;99.90;;;;;;5112246;27;20131;-46
2022/11/19 01:11:36;;;;;;;17.95;8.98;;;1.60;99.90;;;;;;5095087;28;20034;-45
2022/11/19 01:14:04;;;;;;;16.88;9.60;;;1.80;99.90;;;;;;5112397;27;20482;-44
2022/11/19 01:16:35;;;;;;;15.85;8.95;;;1.50;99.90;;;;;;5112859;27;20043;-44
2022/11/19 01:19:02;;;;;;;17.65;9.38;;;1.60;99.90;;;;;;5111276;28;20052;-44
2022/11/19 01:21:30;;;;;;;15.90;8.95;;;1.60;99.90;;;;;;5113595;27;20063;-47
2022/11/19 01:23:57;;;;;;;20.35;9.30;;;1.60;99.90;;;;;;5094318;28;20047;-47
2022/11/19 01:26:23;;;;;;;17.33;8.82;;;1.50;99.90;;;;;;5111580;27;20483;-45
2022/11/19 01:28:49;;;;;;;16.38;9.30;;;1.50;99.90;;;;;;5112268;27;20034;-47
2022/11/19 01:31:17;;;;;;;17.45;9.85;;;1.50;99.90;;;;;;5112347;27;20032;-46
2022/11/19 01:33:43;;;;;;;17.77;8.90;;;1.50;99.90;;;;;;5113696;27;20074;-45
2022/11/19 01:36:15;;;;;;;16.20;8.70;;;1.50;99.90;;;;;;5112501;27;20071;-44
2022/11/19 01:38:41;;;;;;;20.23;9.20;;;1.40;99.90;;;;;;5112998;27;20035;-45
2022/11/19 01:41:07;;;;;;;14.88;8.00;;;1.50;99.90;;;;;;5113145;27;20042;-48
2022/11/19 01:43:39;;;;;;;16.05;9.25;;;1.40;99.90;;;;;;5093283;28;20067;-47
2022/11/19 01:46:05;;;;;;;16.50;8.73;;;1.90;99.90;;;;;;5112573;27;20069;-46
2022/11/19 01:48:32;;;;;;;14.35;8.40;;;1.40;99.90;;;;;;5093908;28;20036;-46
2022/11/19 01:51:06;;;;;;;14.50;7.72;;;1.40;99.90;;;;;;5112123;27;20044;-46
2022/11/19 01:53:34;;;;;;;15.45;8.30;;;1.40;99.90;;;;;;5112217;27;20408;-47
2022/11/19 01:56:03;;;;;;;14.73;8.18;;;1.40;99.90;;;;;;5092795;28;20047;-48
2022/11/19 01:58:32;;;;;;;14.55;7.88;;;1.50;99.90;;;;;;5110765;28;20035;-48
2022/11/19 02:00:58;;;;;;;13.52;7.78;;;1.40;99.90;;;;;;5111267;28;20691;-48
2022/11/19 02:03:29;;;;;;;16.23;8.02;;;1.40;99.90;;;;;;5110204;28;20035;-47
2022/11/19 02:05:55;;;;;;;13.27;7.07;;;1.40;99.90;;;;;;5110826;28;20028;-48
2022/11/19 02:08:43;;;;;;;14.32;7.35;;;1.40;99.90;;;;;;5110888;28;20501;-49
2022/11/19 02:11:25;;;;;;;13.98;7.07;;;1.30;99.90;;;;;;5111526;28;20071;-46
2022/11/19 02:14:01;;;;;;;13.18;6.15;;;1.30;99.90;;;;;;5092616;28;20568;-44
2022/11/19 02:16:52;;;;;;;12.02;6.35;;;1.20;99.90;;;;;;5110833;28;20043;-45
2022/11/19 02:19:54;;;;;;;12.07;6.03;;;1.30;99.90;;;;;;5110779;28;20971;-44
2022/11/19 02:22:37;;;;;;;12.43;6.03;;;1.30;99.90;;;;;;5109979;28;20371;-45
2022/11/19 02:25:34;;;;;;;12.75;5.90;;;1.20;99.90;;;;;;5110590;28;20630;-47
2022/11/19 02:28:32;;;;;;;11.32;5.72;;;1.20;99.90;;;;;;5109004;28;20039;-45
2022/11/19 02:31:13;;;;;;;9.57;4.97;;;1.20;99.90;;;;;;5108311;28;20031;-46
2022/11/19 02:33:54;;;;;;;10.40;5.28;;;1.20;99.90;;;;;;5109217;28;20084;-46
2022/11/19 02:36:29;;;;;;;8.95;5.15;;;1.20;99.90;;;;;;5110295;28;20051;-45
2022/11/19 02:39:19;;;;;;;9.07;4.78;;;1.10;99.90;;;;;;5110446;28;20065;-46
2022/11/19 02:42:14;;;;;;;8.27;4.70;;;1.20;99.90;;;;;;5110385;28;20608;-46
2022/11/19 02:45:01;;;;;;;10.63;5.13;;;1.20;99.90;;;;;;5110124;28;20051;-45
2022/11/19 02:47:53;;;;;;;9.35;5.07;;;1.20;99.90;;;;;;5094762;28;20179;-45
2022/11/19 02:50:21;;;;;;;8.52;4.50;;;1.10;99.90;;;;;;5112379;28;20044;-46
2022/11/19 02:52:48;;;;;;;10.02;4.80;;;1.00;99.90;;;;;;5109924;28;20417;-45
2022/11/19 02:55:15;;;;;;;8.68;4.57;;;1.00;99.90;;;;;;5113678;28;20112;-46
2022/11/19 02:57:45;;;;;;;9.02;4.97;;;1.00;99.90;;;;;;5114175;28;20486;-46
2022/11/19 03:06:12;;;;;;;10.48;4.60;;;1.00;99.90;;;;;;5115269;27;20051;-45
2022/11/19 03:08:37;;;;;;;9.27;4.57;;;1.00;99.90;;;;;;5115080;27;20043;-45
2022/11/19 03:11:06;;;;;;;8.68;4.25;;;0.70;99.90;;;;;;5096486;28;20406;-45
2022/11/19 03:17:01;;;;;;;8.75;4.03;;;0.90;99.90;;;;;;5114364;27;20402;-47
2022/11/19 03:19:39;;;;;;;8.18;4.18;;;0.90;99.90;;;;;;5113375;28;20054;-46
2022/11/19 03:22:31;;;;;;;10.05;5.03;;;0.90;99.90;;;;;;5113671;28;20084;-45
2022/11/19 03:24:59;;;;;;;7.30;3.95;;;0.90;99.90;;;;;;5113334;28;20043;-47
2022/11/19 03:27:37;;;;;;;7.60;4.07;;;0.80;99.90;;;;;;5113925;28;20036;-46
2022/11/19 03:30:04;;;;;;;10.45;4.70;;;0.80;99.90;;;;;;5113150;28;20043;-46
2022/11/19 03:32:39;;;;;;;7.88;4.13;;;0.80;99.90;;;;;;5115128;27;20044;-48
2022/11/19 03:35:10;;;;;;;7.75;3.83;;;0.80;99.90;;;;;;5114125;27;20440;-46
2022/11/19 03:37:39;;;;;;;8.15;4.10;;;0.70;99.90;;;;;;5114946;27;20114;-46
2022/11/19 03:40:08;;;;;;;7.72;4.05;;;0.70;99.90;;;;;;5114719;27;20498;-47
2022/11/19 03:42:35;;;;;;;9.40;4.57;;;0.70;99.90;;;;;;5112323;27;20043;-46
2022/11/19 03:45:13;;;;;;;8.90;4.28;;;0.70;99.90;;;;;;5113540;27;20115;-47
2022/11/19 03:47:41;;;;;;;10.63;4.88;;;0.70;99.90;;;;;;5113586;27;20046;-47
2022/11/19 03:50:15;;;;;;;8.57;4.38;;;0.60;99.90;;;;;;5095316;28;20096;-48
2022/11/19 03:52:42;;;;;;;10.18;4.40;;;0.60;99.90;;;;;;5113633;27;20041;-46
2022/11/19 03:55:07;;;;;;;9.55;4.60;;;0.40;99.90;;;;;;5113434;27;20042;-46
2022/11/19 03:57:33;;;;;;;8.93;4.35;;;0.50;99.90;;;;;;5113554;27;20035;-45
2022/11/19 03:59:59;;;;;;;7.95;3.97;;;0.40;99.90;;;;;;5113513;27;20031;-46
2022/11/19 04:02:24;;;;;;;9.25;4.60;;;0.40;99.90;;;;;;5112651;28;20432;-46
2022/11/19 04:04:50;;;;;;;9.60;4.82;;;0.30;99.90;;;;;;5111753;28;20040;-46
2022/11/19 04:07:19;;;;;;;7.72;4.07;;;0.30;99.90;;;;;;5095660;28;20041;-47
2022/11/19 04:09:45;;;;;;;7.95;4.43;;;0.30;99.90;;;;;;5114695;27;20087;-46
2022/11/19 04:12:20;;;;;;;8.73;4.38;;;0.30;99.90;;;;;;5095115;28;20047;-47
2022/11/19 04:14:46;;;;;;;8.98;4.30;;;0.20;99.90;;;;;;5114043;27;20062;-45
2022/11/19 04:17:12;;;;;;;10.07;4.50;;;0.20;99.90;;;;;;5113123;27;20044;-46
2022/11/19 04:19:37;;;;;;;9.20;4.75;;;0.10;99.90;;;;;;5113173;27;20047;-47
2022/11/19 04:22:03;;;;;;;9.43;4.80;;;-0.10;99.90;;;;;;5094632;28;20059;-46
2022/11/19 04:24:29;;;;;;;11.13;4.82;;;-0.10;99.90;;;;;;5112983;27;20071;-45
2022/11/19 04:26:55;;;;;;;9.25;4.72;;;-0.10;99.90;;;;;;5113292;27;20126;-48
2022/11/19 04:29:20;;;;;;;10.20;5.30;;;-0.10;99.90;;;;;;5112475;28;20044;-46
2022/11/19 04:31:46;;;;;;;8.80;4.70;;;-0.10;99.90;;;;;;5112926;27;20036;-45
2022/11/19 04:34:12;;;;;;;11.40;5.18;;;-0.10;99.90;;;;;;5112728;28;20048;-45
2022/11/19 04:36:40;;;;;;;10.25;4.88;;;-0.20;99.90;;;;;;5112612;27;20054;-45
2022/11/19 04:39:06;;;;;;;10.13;4.97;;;-0.20;99.90;;;;;;5094067;28;20086;-44
2022/11/19 04:41:33;;;;;;;9.13;4.40;;;-0.20;99.90;;;;;;5093429;28;20047;-45
2022/11/19 04:43:59;;;;;;;8.63;4.30;;;-0.20;99.90;;;;;;5095215;28;20425;-44
2022/11/19 04:46:24;;;;;;;8.85;4.22;;;-0.20;99.90;;;;;;5111990;28;20046;-45
2022/11/19 04:48:50;;;;;;;10.30;5.18;;;0.10;99.90;;;;;;5111547;28;20043;-45
2022/11/19 04:51:16;;;;;;;10.85;5.28;;;-0.30;99.90;;;;;;5111882;27;20035;-46
2022/11/19 04:53:41;;;;;;;11.10;4.95;;;-0.30;99.90;;;;;;5113091;27;20031;-48
2022/11/19 04:56:07;;;;;;;9.27;4.85;;;-0.30;99.90;;;;;;5111882;28;20031;-45
2022/11/19 04:58:34;;;;;;;13.80;4.97;;;-0.40;99.90;;;;;;5113361;27;20031;-45
2022/11/19 05:00:59;;;;;;;10.27;5.18;;;-0.40;99.90;;;;;;5111562;28;20039;-47
2022/11/19 05:03:25;;;;;;;10.75;5.22;;;-0.40;99.90;;;;;;5111810;28;20042;-47
2022/11/19 05:05:51;;;;;;;8.70;4.78;;;-0.20;99.90;;;;;;5112689;27;20074;-45
2022/11/19 05:08:16;;;;;;;8.75;4.60;;;-0.50;99.90;;;;;;5111097;27;20077;-45
2022/11/19 05:10:43;;;;;;;10.98;5.38;;;-0.20;99.90;;;;;;5112749;27;20043;-46
2022/11/19 05:13:09;;;;;;;9.23;4.88;;;-0.50;99.90;;;;;;5113283;27;20035;-46
2022/11/19 05:15:35;;;;;;;11.23;4.72;;;-0.60;99.90;;;;;;5112597;27;20092;-45
2022/11/19 05:18:01;;;;;;;9.95;5.22;;;-0.60;99.90;;;;;;5112113;27;20082;-45
2022/11/19 05:20:26;;;;;;;10.35;5.53;;;-0.60;99.90;;;;;;5112377;27;20039;-46
2022/11/19 05:22:52;;;;;;;11.43;5.18;;;-0.70;99.90;;;;;;5112308;28;20036;-50
2022/11/19 05:25:18;;;;;;;10.57;4.95;;;-0.70;99.90;;;;;;5111730;27;20424;-47
2022/11/19 05:27:44;;;;;;;9.85;4.40;;;-0.70;99.90;;;;;;5110809;28;20052;-45
2022/11/19 05:30:10;;;;;;;9.43;4.65;;;-0.70;99.90;;;;;;5093738;28;20051;-47
2022/11/19 05:32:36;;;;;;;11.48;4.60;;;-0.80;99.90;;;;;;5112196;27;20462;-47
2022/11/19 05:35:03;;;;;;;10.85;5.05;;;-0.80;99.90;;;;;;5112035;27;20043;-45
2022/11/19 05:37:29;;;;;;;9.23;4.90;;;-0.80;99.90;;;;;;5111827;28;20039;-46
2022/11/19 05:39:55;;;;;;;8.45;4.32;;;-0.80;99.90;;;;;;5112174;27;20186;-46
2022/11/19 05:42:20;;;;;;;9.50;4.82;;;-0.80;99.90;;;;;;5110427;27;20485;-45
2022/11/19 05:44:46;;;;;;;9.68;4.57;;;-0.90;99.90;;;;;;5111041;28;20047;-45
2022/11/19 05:47:14;;;;;;;9.73;4.75;;;-1.00;99.90;;;;;;5111290;27;20125;-45
2022/11/19 05:49:40;;;;;;;10.73;4.80;;;-0.90;99.90;;;;;;5111097;28;20160;-45
2022/11/19 05:52:05;;;;;;;9.35;4.57;;;-1.10;99.90;;;;;;5110616;27;20122;-45
2022/11/19 05:54:31;;;;;;;10.93;5.32;;;-0.90;99.90;;;;;;5111102;28;20415;-45
2022/11/19 05:56:57;;;;;;;9.70;4.68;;;-1.00;99.90;;;;;;5110864;28;20094;-45
2022/11/19 05:59:23;;;;;;;9.82;4.65;;;-1.00;99.90;;;;;;5112256;27;20096;-46
2022/11/19 06:01:48;;;;;;;12.05;5.25;;;-1.00;99.90;;;;;;5110863;27;20428;-47
2022/11/19 06:04:14;;;;;;;8.73;4.60;;;-1.00;99.90;;;;;;5111113;28;20124;-48
2022/11/19 06:06:40;;;;;;;8.63;4.93;;;-1.10;99.90;;;;;;5111208;28;20092;-49
2022/11/19 06:09:06;;;;;;;10.38;4.55;;;-1.10;99.90;;;;;;5092984;28;20367;-46
2022/11/19 06:11:46;;;;;;;8.73;4.60;;;-1.10;99.90;;;;;;5110587;28;20077;-46
2022/11/19 06:14:16;;;;;;;7.93;4.13;;;-1.10;99.90;;;;;;5110368;28;20035;-49
2022/11/19 06:16:42;;;;;;;10.75;5.18;;;-1.10;99.90;;;;;;5109718;28;20122;-47
2022/11/19 06:19:08;;;;;;;10.85;4.63;;;-1.30;99.90;;;;;;5109468;28;20059;-48
2022/11/19 06:21:33;;;;;;;9.23;4.85;;;-1.20;99.90;;;;;;5111911;28;20049;-47
2022/11/19 06:23:59;;;;;;;9.00;4.93;;;-1.20;99.90;;;;;;5110494;28;20048;-45
2022/11/19 06:26:27;;;;;;;9.80;4.63;;;-1.20;99.90;;;;;;5110920;28;20074;-48
2022/11/19 06:28:53;;;;;;;11.07;5.07;;;-1.10;99.90;;;;;;5094641;28;20059;-47
2022/11/19 06:31:19;;;;;;;8.82;4.60;;;-1.20;99.90;;;;;;5097961;27;20040;-46
2022/11/19 06:33:45;;;;;;;8.45;4.75;;;-1.30;99.90;;;;;;5115585;27;20036;-45
2022/11/19 06:36:11;;;;;;;8.93;4.97;;;-1.30;99.90;;;;;;5114629;27;20039;-48
2022/11/19 06:38:36;;;;;;;7.90;4.30;;;-1.30;99.90;;;;;;5095685;28;20067;-48
2022/11/19 06:41:02;;;;;;;9.32;4.55;;;-1.30;99.90;;;;;;5115264;28;20031;-50
2022/11/19 06:43:28;;;;;;;11.18;5.07;;;-1.40;99.90;;;;;;5115783;27;20122;-45
2022/11/19 06:45:53;;;;;;;10.88;5.43;;;-1.30;99.90;;;;;;5115077;27;20440;-43
2022/11/19 06:48:19;;;;;;;11.45;5.32;;;-0.90;99.90;;;;;;5115717;27;20036;-44
2022/11/19 06:50:45;;;;;;;11.20;5.18;;;-1.40;99.90;;;;;;5114092;28;20088;-45
2022/11/19 06:53:11;;;;;;;10.48;5.10;;;-1.40;99.90;;;;;;5114585;27;20394;-47
2022/11/19 06:55:37;;;;;;;9.18;4.57;;;-1.40;99.90;;;;;;5114656;27;20075;-46
2022/11/19 06:58:04;;;;;;;10.60;5.10;;;-1.40;99.90;;;;;;5114264;28;20031;-45
2022/11/19 07:00:30;;;;;;;11.25;5.78;;;-1.40;99.90;;;;;;5114127;28;20117;-46
2022/11/19 07:02:56;;;;;;;9.68;5.50;;;-1.40;99.90;;;;;;5114245;28;20043;-46
2022/11/19 07:05:21;;;;;;;11.25;5.60;;;-1.40;99.90;;;;;;5114170;28;20047;-46
2022/11/19 07:07:47;;;;;;;10.63;5.78;;;-1.40;99.90;;;;;;5114139;28;20390;-45
2022/11/19 07:10:13;;;;;;;12.45;5.53;;;-1.50;99.90;;;;;;5114334;28;20039;-48
2022/11/19 07:12:39;;;;;;;11.90;6.18;;;-1.50;99.90;;;;;;5114278;28;20459;-50
2022/11/19 07:15:04;;;;;;;14.27;5.93;;;-1.50;99.90;;;;;;5115257;27;20497;-46
2022/11/19 07:17:30;;;;;;;14.15;6.15;;;-1.50;99.90;;;;;;5094370;27;20044;-49
2022/11/19 07:19:56;;;;;;;13.90;6.55;;;-1.50;99.90;;;;;;5095798;28;20083;-48
2022/11/19 07:22:21;;;;;;;11.70;5.88;;;-1.60;99.90;;;;;;5114711;27;20058;-48
2022/11/19 07:24:47;;;;;;;11.80;6.35;;;-1.50;99.90;;;;;;5096785;28;20044;-45
2022/11/19 07:27:14;;;;;;;12.57;5.85;;;-1.50;99.90;;;;;;5097775;28;20031;-48
2022/11/19 07:29:40;;;;;;;12.00;5.82;;;-1.50;99.90;;;;;;5114793;27;20066;-47
2022/11/19 07:32:06;;;;;;;11.85;6.10;;;-1.50;99.90;;;;;;5114715;27;20066;-48
2022/11/19 07:34:31;;;;;;;13.02;6.50;;;-1.50;99.90;;;;;;5115347;27;20071;-51
2022/11/19 07:36:57;;;;;;;15.75;7.10;;;-1.50;99.90;;;;;;5104040;28;20116;-47
2022/11/19 07:39:23;;;;;;;14.25;6.65;;;-1.50;99.90;;;;;;5102640;27;20050;-52
2022/11/19 07:44:32;;;;;;;13.60;6.60;;;-1.50;99.90;;;;;;5103126;27;20043;-48
2022/11/19 07:46:58;;;;;;;12.85;7.13;;;-1.50;99.90;;;;;;5104681;27;20738;-46
2022/11/19 07:49:25;;;;;;;13.60;7.10;;;-1.50;99.90;;;;;;5104737;27;20093;-45
2022/11/19 07:51:51;;;;;;;15.38;6.97;;;-1.50;99.90;;;;;;5101095;27;20110;-46
2022/11/19 07:54:17;;;;;;;15.30;7.68;;;-1.50;99.90;;;;;;5103877;27;20105;-45
2022/11/19 07:56:43;;;;;;;16.67;7.63;;;-1.50;99.90;;;;;;5103148;28;20035;-45
2022/11/19 07:59:09;;;;;;;14.30;6.90;;;-1.40;99.90;;;;;;5085679;28;20035;-45
2022/11/19 08:01:35;;;;;;;15.95;7.88;;;-1.40;99.90;;;;;;5104747;27;20039;-45
2022/11/19 08:04:01;;;;;;;14.30;7.32;;;-1.40;99.90;;;;;;5103610;27;20655;-46
2022/11/19 08:06:28;;;;;;;16.98;8.00;;;-1.40;99.90;;;;;;5102213;27;20055;-46
2022/11/19 08:08:55;;;;;;;16.92;8.57;;;-1.40;99.90;;;;;;5104300;27;20027;-46
2022/11/19 08:11:21;;;;;;;16.15;8.35;;;-1.30;99.90;;;;;;5103698;27;20390;-44
2022/11/19 08:13:47;;;;;;;15.57;8.00;;;-1.40;99.90;;;;;;5103749;27;20067;-49
2022/11/19 08:19:01;;;;;;;16.60;7.90;;;-1.40;99.90;;;;;;5102044;28;20058;-47
2022/11/19 08:21:27;;;;;;;13.95;7.72;;;-1.30;99.90;;;;;;5102915;28;20043;-49
2022/11/19 08:23:54;;;;;;;18.02;7.88;;;-1.10;99.90;;;;;;5103375;28;20451;-50
2022/11/19 08:26:19;;;;;;;14.45;7.68;;;-1.00;99.90;;;;;;5080906;28;20118;-46
2022/11/19 08:28:45;;;;;;;15.38;7.88;;;-1.10;99.90;;;;;;5101429;28;20115;-46
2022/11/19 08:31:11;;;;;;;18.65;8.75;;;-1.10;99.90;;;;;;5099069;28;20075;-48
2022/11/19 08:33:36;;;;;;;16.65;8.38;;;-1.00;99.90;;;;;;5107892;28;20031;-49
2022/11/19 08:36:03;;;;;;;16.38;8.15;;;-1.00;99.90;;;;;;5107180;28;20399;-46
2022/11/19 08:38:28;;;;;;;15.68;8.20;;;-0.90;99.90;;;;;;5104375;28;20031;-45
2022/11/19 08:42:58;;;;;;;17.20;8.70;;;-0.90;99.90;;;;;;5102879;28;20524;-48
2022/11/19 08:43:40;;;;;;;16.13;8.60;;;-0.90;99.90;;;;;;5108672;28;20119;-47
2022/11/19 08:46:07;;;;;;;17.40;8.45;;;-0.80;99.90;;;;;;5109192;28;20042;-47
2022/11/19 08:48:33;;;;;;;19.73;7.25;;;-0.80;99.90;;;;;;5086854;28;20040;-48
2022/11/19 08:51:05;;;;;;;20.77;8.43;;;-0.70;99.90;;;;;;5103149;28;20105;-48
2022/11/19 08:53:31;;;;;;;21.52;8.55;;;-0.60;99.90;;;;;;5086206;28;20051;-49
2022/11/19 08:55:57;;;;;;;22.25;8.75;;;-0.60;99.90;;;;;;5108272;28;20039;-45
2022/11/19 08:58:23;;;;;;;16.00;7.78;;;-0.60;99.90;;;;;;5103886;28;20380;-48
2022/11/19 09:00:49;;;;;;;16.70;8.68;;;-0.60;99.90;;;;;;5105446;28;20035;-47
2022/11/19 09:03:14;;;;;;;21.85;9.30;;;-0.50;99.90;;;;;;5106910;28;20054;-49
2022/11/19 09:05:40;;;;;;;15.77;7.90;;;-0.40;99.90;;;;;;5107668;28;20057;-44
2022/11/19 09:08:06;;;;;;;14.38;7.55;;;-0.40;99.90;;;;;;5088286;28;20364;-47
2022/11/19 09:10:33;;;;;;;18.27;8.15;;;-0.30;99.90;;;;;;5089603;28;20028;-47
2022/11/19 09:13:01;;;;;;;17.88;8.18;;;0.20;99.90;;;;;;5105242;28;20059;-44
2022/11/19 09:15:27;;;;;;;17.55;8.02;;;-0.30;99.90;;;;;;5109973;28;20101;-48
2022/11/19 09:17:52;;;;;;;16.30;8.00;;;0.20;99.90;;;;;;5110694;28;20035;-46
2022/11/19 09:20:18;;;;;;;15.90;8.27;;;-0.20;99.90;;;;;;5111054;28;20055;-47
2022/11/19 09:22:44;;;;;;;15.50;7.55;;;-0.10;99.90;;;;;;5111017;28;20035;-44
2022/11/19 09:25:10;;;;;;;14.55;7.15;;;0.00;99.90;;;;;;5110711;28;20521;-45
2022/11/19 09:27:36;;;;;;;14.73;7.43;;;0.30;99.90;;;;;;5110950;28;20061;-44
2022/11/19 09:30:04;;;;;;;17.75;8.10;;;0.20;99.90;;;;;;5110228;28;20031;-46
2022/11/19 09:32:29;;;;;;;14.65;6.78;;;0.30;99.90;;;;;;5106243;28;20035;-46
2022/11/19 09:34:55;;;;;;;13.65;6.82;;;0.30;99.90;;;;;;5107664;28;20039;-48
2022/11/19 09:37:21;;;;;;;13.93;7.35;;;0.30;99.90;;;;;;5109882;28;20127;-46
2022/11/19 09:39:47;;;;;;;13.63;6.75;;;0.40;99.90;;;;;;5111002;28;20043;-45
2022/11/19 09:42:50;;;;;;;11.05;6.10;;;0.30;99.90;;;;;;5109729;28;20039;-44
2022/11/19 09:45:17;;;;;;;11.13;5.95;;;0.50;99.90;;;;;;5110305;28;20075;-45
2022/11/19 09:48:21;;;;;;;12.93;6.97;;;0.30;99.90;;;;;;5111132;28;20035;-45
2022/11/19 09:50:46;;;;;;;14.02;6.68;;;0.50;99.90;;;;;;5109668;28;20038;-47
2022/11/19 09:53:17;;;;;;;14.07;7.20;;;0.60;99.90;;;;;;5090929;28;20402;-46
2022/11/19 09:55:45;;;;;;;12.13;6.57;;;0.70;99.90;;;;;;5109939;28;20035;-47
2022/11/19 09:58:17;;;;;;;12.85;6.72;;;0.90;99.90;;;;;;5110118;28;20063;-44
2022/11/19 10:00:43;;;;;;;12.75;6.50;;;1.20;99.90;;;;;;5110345;28;20045;-44
2022/11/19 10:03:23;;;;;;;14.75;6.57;;;1.60;99.90;;;;;;5110357;28;20047;-44
2022/11/19 10:06:14;;;;;;;9.98;5.75;;;2.10;99.90;;;;;;5108732;28;20464;-46
2022/11/19 10:08:59;;;;;;;11.10;6.15;;;2.40;99.90;;;;;;5110728;28;20046;-46
2022/11/19 10:11:36;;;;;;;11.57;6.55;;;2.60;99.90;;;;;;5109912;28;20692;-46
2022/11/19 10:14:19;;;;;;;13.32;6.63;;;2.80;99.90;;;;;;5109380;28;20052;-50
2022/11/19 10:17:15;;;;;;;10.32;5.88;;;3.10;99.90;;;;;;5109100;28;20043;-48
2022/11/19 10:19:41;;;;;;;12.90;6.22;;;3.20;99.90;;;;;;5110289;28;20062;-47
2022/11/19 10:22:53;;;;;;;9.50;5.40;;;3.50;99.90;;;;;;5111882;28;20039;-50
2022/11/19 10:25:26;;;;;;;9.88;5.40;;;3.40;99.90;;;;;;5100860;28;20093;-48
2022/11/19 10:28:14;;;;;;;8.70;5.43;;;3.60;99.90;;;;;;5110129;28;20420;-50
2022/11/19 10:30:46;;;;;;;11.23;5.90;;;3.60;99.90;;;;;;5110462;28;20486;-49
2022/11/19 10:33:32;;;;;;;9.02;5.65;;;3.80;99.90;;;;;;5110982;28;20039;-46
2022/11/19 10:36:18;;;;;;;9.57;5.55;;;3.90;99.90;;;;;;5108554;28;20043;-47
2022/11/19 10:39:21;;;;;;;9.50;5.65;;;3.90;99.90;;;;;;5104990;28;20127;-47
2022/11/19 10:42:08;;;;;;;10.02;5.65;;;4.10;99.90;;;;;;5108339;28;20403;-47
2022/11/19 10:44:41;;;;;;;9.15;5.78;;;4.20;99.90;;;;;;5110793;28;20051;-48
2022/11/19 10:47:32;;;;;;;7.43;4.65;;;4.10;99.90;;;;;;5110691;28;20044;-47
2022/11/19 10:49:58;;;;;;;8.43;4.80;;;3.80;99.90;;;;;;5110825;28;20035;-46
2022/11/19 10:52:40;;;;;;;8.50;5.00;;;3.70;99.90;;;;;;5110756;28;20398;-50
2022/11/19 10:55:18;;;;;;;8.40;5.35;;;3.30;99.90;;;;;;5107999;28;20170;-49
2022/11/19 10:57:45;;;;;;;9.13;5.47;;;3.30;99.90;;;;;;5107315;28;20035;-47
2022/11/19 11:00:11;;;;;;;10.57;5.60;;;3.30;99.90;;;;;;5106970;28;20038;-49
2022/11/19 11:02:52;;;;;;;9.00;5.28;;;3.40;99.90;;;;;;5092680;28;20070;-47
2022/11/19 11:05:18;;;;;;;11.63;5.05;;;3.50;99.90;;;;;;5111750;28;20047;-48
2022/11/19 11:07:48;;;;;;;9.65;4.95;;;3.90;99.90;;;;;;5111084;28;20097;-48
2022/11/19 11:10:29;;;;;;;9.05;5.22;;;4.10;99.90;;;;;;5108848;28;20070;-47
2022/11/19 11:15:47;;;;;;;8.95;5.38;;;4.80;99.90;;;;;;5102565;28;20103;-48
2022/11/19 11:18:15;;;;;;;10.18;4.95;;;5.40;99.90;;;;;;5107723;28;20047;-50
2022/11/19 11:20:49;;;;;;;10.00;5.35;;;5.20;99.90;;;;;;5112555;28;20574;-50
2022/11/19 11:23:23;;;;;;;8.75;5.15;;;5.50;99.90;;;;;;5111550;28;20078;-49
2022/11/19 11:25:57;;;;;;;9.80;4.93;;;5.40;99.90;;;;;;5108965;28;20117;-49
2022/11/19 11:28:24;;;;;;;7.88;4.88;;;5.60;99.90;;;;;;5113432;28;20049;-47
2022/11/19 11:31:08;;;;;;;7.25;4.97;;;5.60;99.90;;;;;;5111498;28;20112;-48
2022/11/19 11:33:35;;;;;;;12.98;4.80;;;5.50;99.90;;;;;;5107581;28;20793;-50
2022/11/19 11:36:05;;;;;;;9.18;5.00;;;5.70;99.90;;;;;;5105711;28;20484;-48
2022/11/19 11:38:38;;;;;;;6.85;5.03;;;5.70;99.90;;;;;;5106084;28;20050;-48
2022/11/19 11:41:07;;;;;;;7.38;4.70;;;5.80;99.90;;;;;;5110190;28;20171;-48
2022/11/19 11:43:36;;;;;;;8.65;5.45;;;5.80;99.90;;;;;;5107997;28;20109;-48
2022/11/19 11:46:07;;;;;;;8.48;5.47;;;5.90;99.90;;;;;;5105389;28;20040;-50
2022/11/19 11:48:41;;;;;;;9.00;5.80;;;6.00;99.90;;;;;;5089894;28;20043;-47
2022/11/19 11:51:07;;;;;;;10.65;5.45;;;6.10;99.90;;;;;;5110456;28;20390;-50
2022/11/19 11:53:33;;;;;;;6.95;5.05;;;6.30;99.90;;;;;;5105695;28;20024;-48
2022/11/19 11:56:01;;;;;;;8.10;5.18;;;5.90;99.90;;;;;;5102786;28;20614;-49
2022/11/19 11:58:32;;;;;;;7.55;5.43;;;5.80;99.90;;;;;;5107553;28;20492;-50
2022/11/19 12:01:13;;;;;;;8.68;6.13;;;5.80;99.90;;;;;;5108594;28;20045;-50
2022/11/19 12:03:59;;;;;;;8.50;5.55;;;5.90;99.90;;;;;;5101151;28;20066;-50
2022/11/19 12:06:35;;;;;;;7.95;5.50;;;6.00;99.90;;;;;;5086129;28;20046;-52
2022/11/19 12:09:19;;;;;;;7.90;4.80;;;6.20;99.90;;;;;;5102196;28;20040;-49
2022/11/19 12:12:11;;;;;;;9.70;5.38;;;6.20;99.90;;;;;;5102164;28;20470;-47
2022/11/19 12:15:05;;;;;;;9.68;5.38;;;6.30;99.90;;;;;;5106928;28;20038;-47
2022/11/19 12:17:53;;;;;;;7.00;4.63;;;6.30;99.90;;;;;;5090375;28;20130;-49
2022/11/19 12:20:26;;;;;;;7.32;5.00;;;6.30;99.90;;;;;;5102560;28;20063;-47
2022/11/19 12:23:19;;;;;;;9.82;4.82;;;6.60;99.90;;;;;;5106465;28;20048;-49
2022/11/19 12:25:55;;;;;;;7.82;5.07;;;6.50;99.90;;;;;;5102121;28;20067;-50
2022/11/19 12:28:45;;;;;;;7.05;4.93;;;6.70;99.90;;;;;;5103941;28;20123;-48
2022/11/19 12:31:43;;;;;;;6.88;4.70;;;6.50;99.90;;;;;;5105218;28;20043;-46
2022/11/19 12:34:21;;;;;;;7.05;4.70;;;6.60;99.90;;;;;;5102038;28;20035;-48
2022/11/19 12:37:18;;;;;;;7.63;5.00;;;6.70;99.90;;;;;;5104106;28;20100;-49
2022/11/19 12:40:16;;;;;;;7.78;4.80;;;6.90;99.50;;;;;;5087703;28;21337;-48
2022/11/19 12:42:54;;;;;;;6.78;4.65;;;6.90;99.90;;;;;;5084294;28;20119;-49
2022/11/19 12:45:43;;;;;;;7.32;4.57;;;6.80;99.90;;;;;;5103081;28;20891;-48
2022/11/19 12:48:28;;;;;;;6.93;4.68;;;6.70;99.90;;;;;;5104083;28;20575;-47
2022/11/19 12:51:26;;;;;;;8.32;4.70;;;7.00;99.90;;;;;;5103272;28;20110;-47
2022/11/19 12:54:19;;;;;;;8.15;4.85;;;7.10;99.90;;;;;;5072383;28;20104;-47
2022/11/19 12:57:13;;;;;;;6.88;4.43;;;7.10;99.30;;;;;;5104311;28;20441;-47
2022/11/19 12:59:57;;;;;;;5.93;4.35;;;6.90;98.60;;;;;;5103352;28;20694;-49
2022/11/19 13:02:31;;;;;;;6.35;4.00;;;6.90;99.90;;;;;;5101309;28;20458;-48
2022/11/19 13:05:06;;;;;;;6.15;4.35;;;6.80;99.90;;;;;;5105649;28;20028;-50
2022/11/19 13:07:43;;;;;;;6.50;4.40;;;6.90;99.90;;;;;;5105361;28;20505;-48
2022/11/19 13:10:17;;;;;;;7.13;3.97;;;7.10;99.90;;;;;;5099724;28;20032;-49
2022/11/19 13:12:50;;;;;;;;;;;7.10;98.40;;;;;;5104194;28;20513;-48
2022/11/19 13:15:28;;;;;;;5.72;4.00;;;7.00;97.00;;;;;;5103386;28;19920;-48
2022/11/19 13:17:57;;;;;;;6.03;3.95;;;6.90;99.90;;;;;;5102228;28;20416;-48
2022/11/19 13:20:49;;;;;;;6.22;3.95;;;7.00;99.90;;;;;;5103572;28;20043;-49
2022/11/19 13:23:36;;;;;;;6.38;4.30;;;6.90;98.00;;;;;;5109499;28;20451;-47